Time,TemperatureF,DewpointF,PressureIn,WindDirection,WindDirectionDegrees,WindSpeedMPH,WindSpeedGustMPH,Humidity,HourlyPrecipIn,Conditions,Clouds,dailyrainin,SoftwareType,DateUTC
2013-10-29 00:14:00,44.0,33.0,30.33,NE,47,0.0,0.0,66,0.00,,,-99.99,,2013-10-29 04:14:00,
2013-10-29 00:24:00,43.0,32.0,30.33,NNW,347,0.0,0.0,66,0.00,,,-99.99,,2013-10-29 04:24:00,
2013-10-29 00:57:00,42.0,32.0,30.34,NE,36,0.0,0.0,67,0.00,,,-99.99,,2013-10-29 04:57:00,
2013-10-29 01:04:00,42.0,32.0,30.34,NE,36,0.0,0.0,67,0.00,,,-99.99,,2013-10-29 05:04:00,
2013-10-29 01:19:00,42.0,32.0,30.34,NE,36,0.0,0.0,67,0.00,,,-99.99,,2013-10-29 05:19:00,
2013-10-29 01:45:00,41.0,32.0,30.35,NNW,333,0.0,1.0,70,0.00,,,-99.99,,2013-10-29 05:45:00,
2013-10-29 01:52:00,40.0,32.0,30.35,NNW,332,0.0,1.0,73,0.00,,,-99.99,,2013-10-29 05:52:00,
2013-10-29 02:16:00,40.0,32.0,30.35,NNW,332,1.0,1.0,74,0.00,,,-99.99,,2013-10-29 06:16:00,
2013-10-29 02:26:00,39.0,31.0,30.35,NNE,15,0.0,1.0,74,0.00,,,-99.99,,2013-10-29 06:26:00,
2013-10-29 02:53:00,39.0,32.0,30.35,NW,306,0.0,2.0,75,0.00,,,-99.99,,2013-10-29 06:53:00,
2013-10-29 03:03:00,38.0,31.0,30.36,WNW,302,0.0,1.0,76,0.00,,,-99.99,,2013-10-29 07:03:00,
2013-10-29 03:11:00,39.0,32.0,30.36,North,351,0.0,2.0,75,0.00,,,-99.99,,2013-10-29 07:11:00,
2013-10-29 03:25:00,38.0,31.0,30.36,WNW,302,0.0,1.0,76,0.00,,,-99.99,,2013-10-29 07:25:00,
2013-10-29 03:32:00,38.0,31.0,30.36,WNW,302,0.0,1.0,76,0.00,,,-99.99,,2013-10-29 07:32:00,
2013-10-29 03:55:00,38.0,31.0,30.36,WNW,302,0.0,1.0,76,0.00,,,-99.99,,2013-10-29 07:55:00,
2013-10-29 04:24:00,38.0,30.0,30.37,NW,306,0.0,0.0,74,0.00,,,-99.99,,2013-10-29 08:24:00,
2013-10-29 04:42:00,38.0,30.0,30.37,NW,306,0.0,0.0,74,0.00,,,-99.99,,2013-10-29 08:42:00,
2013-10-29 04:52:00,38.0,30.0,30.37,NW,306,0.0,0.0,74,0.00,,,-99.99,,2013-10-29 08:52:00,
2013-10-29 05:22:00,38.0,30.0,30.38,NW,306,0.0,0.0,74,0.00,,,-99.99,,2013-10-29 09:22:00,
2013-10-29 05:53:00,38.0,30.0,30.39,NW,306,0.0,0.0,74,0.00,,,-99.99,,2013-10-29 09:53:00,
2013-10-29 06:13:00,38.0,30.0,30.39,NW,306,0.0,0.0,74,0.00,,,-99.99,,2013-10-29 10:13:00,
2013-10-29 06:23:00,38.0,30.0,30.39,NW,306,0.0,0.0,74,0.00,,,-99.99,,2013-10-29 10:23:00,
2013-10-29 06:53:00,38.0,30.0,30.40,NW,306,0.0,0.0,74,0.00,,,-99.99,,2013-10-29 10:53:00,
2013-10-29 07:03:00,38.0,30.0,30.40,NW,306,0.0,0.0,74,0.00,,,-99.99,,2013-10-29 11:03:00,
2013-10-29 07:22:00,38.0,30.0,30.40,NW,306,0.0,0.0,74,0.00,,,-99.99,,2013-10-29 11:22:00,
2013-10-29 07:52:00,38.0,30.0,30.40,NW,306,0.0,0.0,74,0.00,,,-99.99,,2013-10-29 11:52:00,
2013-10-29 08:01:00,38.0,30.0,30.40,NW,306,0.0,0.0,74,0.00,,,-99.99,,2013-10-29 12:01:00,
2013-10-29 08:12:00,38.0,30.0,30.40,NW,306,0.0,0.0,74,0.00,,,-99.99,,2013-10-29 12:12:00,
2013-10-29 08:21:00,38.0,30.0,30.40,NW,306,0.0,0.0,74,0.00,,,-99.99,,2013-10-29 12:21:00,
2013-10-29 08:52:00,38.0,27.0,30.42,NW,316,1.0,2.0,65,0.00,,,-99.99,,2013-10-29 12:52:00,
2013-10-29 09:22:00,39.0,28.0,30.42,NNW,335,1.0,3.0,65,0.00,,,-99.99,,2013-10-29 13:22:00,
2013-10-29 09:32:00,39.0,28.0,30.42,NNW,335,1.0,3.0,65,0.00,,,-99.99,,2013-10-29 13:32:00,
2013-10-29 09:42:00,39.0,28.0,30.42,NNW,335,1.0,3.0,65,0.00,,,-99.99,,2013-10-29 13:42:00,
2013-10-29 09:52:00,39.0,28.0,30.42,North,5,0.0,1.0,64,0.00,,,-99.99,,2013-10-29 13:52:00,
2013-10-29 10:22:00,41.0,28.0,30.42,North,11,1.0,5.0,59,0.00,,,-99.99,,2013-10-29 14:22:00,
2013-10-29 10:42:00,41.0,28.0,30.42,North,356,1.0,5.0,59,0.00,,,-99.99,,2013-10-29 14:42:00,
2013-10-29 10:52:00,41.0,28.0,30.42,North,356,1.0,5.0,59,0.00,,,-99.99,,2013-10-29 14:52:00,
2013-10-29 11:02:00,41.0,28.0,30.42,North,356,1.0,5.0,59,0.00,,,-99.99,,2013-10-29 15:02:00,
2013-10-29 11:54:00,45.0,28.0,30.40,East,90,1.0,5.0,52,0.00,,,-99.99,,2013-10-29 15:54:00,
2013-10-29 12:23:00,47.0,28.0,30.40,ENE,62,1.0,5.0,48,0.00,,,-99.99,,2013-10-29 16:23:00,
2013-10-29 12:53:00,48.0,28.0,30.38,ENE,61,2.0,6.0,46,0.00,,,-99.99,,2013-10-29 16:53:00,
2013-10-29 13:12:00,49.0,29.0,30.38,WNW,294,1.0,4.0,46,0.00,,,-99.99,,2013-10-29 17:12:00,
2013-10-29 13:22:00,49.0,29.0,30.38,WNW,294,1.0,4.0,46,0.00,,,-99.99,,2013-10-29 17:22:00,
2013-10-29 13:42:00,50.0,29.0,30.37,WNW,286,1.0,4.0,45,0.00,,,-99.99,,2013-10-29 17:42:00,
2013-10-29 13:52:00,50.0,29.0,30.37,NNE,23,3.0,7.0,45,0.00,,,-99.99,,2013-10-29 17:52:00,
2013-10-29 14:22:00,50.0,30.0,30.37,SW,224,2.0,6.0,46,0.00,,,-99.99,,2013-10-29 18:22:00,
2013-10-29 14:42:00,50.0,29.0,30.36,WNW,287,2.0,5.0,45,0.00,,,-99.99,,2013-10-29 18:42:00,
2013-10-29 14:52:00,49.0,29.0,30.35,NNE,32,1.0,3.0,46,0.00,,,-99.99,,2013-10-29 18:52:00,
2013-10-29 15:02:00,49.0,29.0,30.35,NNE,32,1.0,3.0,46,0.00,,,-99.99,,2013-10-29 19:02:00,
2013-10-29 15:11:00,49.0,29.0,30.35,NNE,32,1.0,3.0,46,0.00,,,-99.99,,2013-10-29 19:11:00,
2013-10-29 15:22:00,49.0,29.0,30.35,NNE,32,1.0,3.0,46,0.00,,,-99.99,,2013-10-29 19:22:00,
2013-10-29 15:53:00,49.0,29.0,30.36,ENE,58,2.0,4.0,45,0.00,,,-99.99,,2013-10-29 19:53:00,
2013-10-29 16:12:00,49.0,29.0,30.36,ESE,106,1.0,3.0,45,0.00,,,-99.99,,2013-10-29 20:12:00,
2013-10-29 16:22:00,49.0,29.0,30.35,NE,49,1.0,2.0,45,0.00,,,-99.99,,2013-10-29 20:22:00,
2013-10-29 16:52:00,49.0,29.0,30.35,WNW,294,0.0,2.0,45,0.00,,,-99.99,,2013-10-29 20:52:00,
2013-10-29 17:01:00,49.0,29.0,30.35,WNW,294,0.0,2.0,45,0.00,,,-99.99,,2013-10-29 21:01:00,
2013-10-29 17:22:00,48.0,29.0,30.36,NNE,18,0.0,1.0,47,0.00,,,-99.99,,2013-10-29 21:22:00,
2013-10-29 17:54:00,46.0,29.0,30.36,NNE,18,0.0,0.0,52,0.00,,,-99.99,,2013-10-29 21:54:00,
2013-10-29 18:13:00,45.0,29.0,30.36,NNE,18,0.0,0.0,53,0.00,,,-99.99,,2013-10-29 22:13:00,
2013-10-29 18:23:00,45.0,29.0,30.36,NNE,18,0.0,0.0,53,0.00,,,-99.99,,2013-10-29 22:23:00,
2013-10-29 18:43:00,43.0,28.0,30.36,NNE,18,0.0,0.0,54,0.00,,,-99.99,,2013-10-29 22:43:00,
2013-10-29 18:53:00,43.0,28.0,30.36,WNW,302,0.0,0.0,55,0.00,,,-99.99,,2013-10-29 22:53:00,
2013-10-29 19:22:00,42.0,27.0,30.37,West,272,0.0,0.0,56,0.00,,,-99.99,,2013-10-29 23:22:00,
2013-10-29 19:53:00,42.0,28.0,30.37,West,263,0.0,1.0,58,0.00,,,-99.99,,2013-10-29 23:53:00,
2013-10-29 20:02:00,42.0,28.0,30.37,West,263,0.0,1.0,58,0.00,,,-99.99,,2013-10-30 00:02:00,
2013-10-29 20:22:00,42.0,28.0,30.37,West,262,1.0,1.0,58,0.00,,,-99.99,,2013-10-30 00:22:00,
2013-10-29 20:32:00,42.0,28.0,30.37,West,262,1.0,1.0,58,0.00,,,-99.99,,2013-10-30 00:32:00,
2013-10-29 20:42:00,42.0,28.0,30.37,West,262,1.0,1.0,58,0.00,,,-99.99,,2013-10-30 00:42:00,
2013-10-29 20:52:00,42.0,28.0,30.37,West,262,1.0,1.0,58,0.00,,,-99.99,,2013-10-30 00:52:00,
2013-10-29 21:12:00,39.0,29.0,30.37,West,264,0.0,0.0,67,0.00,,,-99.99,,2013-10-30 01:12:00,
2013-10-29 21:22:00,39.0,29.0,30.37,West,264,0.0,0.0,68,0.00,,,-99.99,,2013-10-30 01:22:00,
2013-10-29 21:52:00,39.0,29.0,30.37,West,264,0.0,0.0,68,0.00,,,-99.99,,2013-10-30 01:52:00,
2013-10-29 22:11:00,39.0,29.0,30.37,West,264,0.0,0.0,68,0.00,,,-99.99,,2013-10-30 02:11:00,
2013-10-29 22:22:00,39.0,29.0,30.37,West,264,0.0,0.0,68,0.00,,,-99.99,,2013-10-30 02:22:00,
2013-10-29 22:52:00,38.0,28.0,30.37,West,264,0.0,0.0,68,0.00,,,-99.99,,2013-10-30 02:52:00,
2013-10-29 23:02:00,38.0,28.0,30.37,West,264,0.0,0.0,68,0.00,,,-99.99,,2013-10-30 03:02:00,
2013-10-29 23:22:00,38.0,29.0,30.37,West,264,0.0,1.0,70,0.00,,,-99.99,,2013-10-30 03:22:00,
2013-10-29 23:34:00,38.0,29.0,30.37,West,264,0.0,1.0,70,0.00,,,-99.99,,2013-10-30 03:34:00,
2013-10-29 23:44:00,38.0,29.0,30.37,West,264,0.0,1.0,70,0.00,,,-99.99,,2013-10-30 03:44:00,
2013-10-29 23:54:00,38.0,29.0,30.37,WNW,298,1.0,1.0,70,0.00,,,-99.99,,2013-10-30 03:54:00,